Time;durP1;ratioP1;P1;durP2;ratioP2;P2;SDS_P1;SDS_P2;PMS_P1;PMS_P2;Temp;Humidity;BMP_temperature;BMP_pressure;BME280_temperature;BME280_humidity;BME280_pressure;Samples;Min_cycle;Max_cycle;Signal;HPM_P1;HPM_P2
2020/12/17 00:01:29;;;;;;;75.27;40.97;;;;;;;0.56;75.07;99847.80;126625;1096;104493;-73
2020/12/17 00:03:56;;;;;;;75.90;37.90;;;;;;;0.57;75.28;99844.29;125733;1096;104931;-73
2020/12/17 00:06:36;;;;;;;75.43;40.97;;;;;;;0.57;75.91;99848.64;125570;1096;104468;-73
2020/12/17 00:09:06;;;;;;;118.20;65.40;;;;;;;0.58;75.42;99851.25;125579;1097;104420;-73
2020/12/17 00:11:33;;;;;;;178.83;94.93;;;;;;;0.59;74.96;99858.22;125649;1096;104471;-73
2020/12/17 00:14:00;;;;;;;206.97;112.10;;;;;;;0.56;75.03;99858.27;125487;1096;104481;-72
2020/12/17 00:16:27;;;;;;;208.20;106.13;;;;;;;0.52;75.71;99851.36;126009;1097;104487;-73
2020/12/17 00:18:55;;;;;;;98.78;51.85;;;;;;;0.49;75.50;99853.16;126223;1097;104462;-72
2020/12/17 00:21:22;;;;;;;78.73;41.13;;;;;;;0.42;75.29;99844.56;125833;1094;104490;-74
2020/12/17 00:23:49;;;;;;;68.92;37.80;;;;;;;0.37;75.57;99842.05;125721;1101;104554;-74
2020/12/17 00:26:19;;;;;;;62.67;32.97;;;;;;;0.32;75.22;99850.85;125701;1101;104596;-75
2020/12/17 00:28:46;;;;;;;62.33;33.70;;;;;;;0.30;75.22;99848.28;126033;1094;104486;-72
2020/12/17 00:31:17;;;;;;;74.20;39.73;;;;;;;0.34;75.71;99851.69;125608;1097;104904;-73
2020/12/17 00:33:46;;;;;;;74.63;38.97;;;;;;;0.38;75.82;99850.74;125588;1101;104443;-73
2020/12/17 00:36:21;;;;;;;68.53;38.87;;;;;;;0.43;75.89;99846.30;125587;1097;104564;-74
2020/12/17 00:38:48;;;;;;;62.43;34.60;;;;;;;0.47;75.74;99852.32;125706;1101;104904;-73
2020/12/17 00:41:17;;;;;;;58.63;33.27;;;;;;;0.48;75.35;99851.43;125581;1096;104510;-74
2020/12/17 00:43:46;;;;;;;64.63;35.30;;;;;;;0.52;75.76;99845.25;125685;1096;104502;-73
2020/12/17 00:46:15;;;;;;;51.10;27.50;;;;;;;0.54;75.76;99854.81;126571;1101;104426;-73
2020/12/17 00:48:43;;;;;;;58.57;29.73;;;;;;;0.53;75.50;99857.45;125589;1101;104618;-73
2020/12/17 00:51:10;;;;;;;62.13;31.53;;;;;;;0.56;75.73;99858.27;125636;1096;104451;-74
2020/12/17 00:53:38;;;;;;;55.47;30.10;;;;;;;0.57;75.48;99864.35;125610;1102;104554;-73
2020/12/17 00:56:06;;;;;;;65.13;32.80;;;;;;;0.59;76.21;99866.06;125519;1101;105012;-74
2020/12/17 00:58:34;;;;;;;60.33;31.13;;;;;;;0.62;75.38;99872.11;127820;1095;102796;-73
2020/12/17 01:01:07;;;;;;;58.97;31.10;;;;;;;0.62;75.70;99867.75;125876;1101;104417;-74
2020/12/17 01:03:37;;;;;;;48.00;24.32;;;;;;;0.62;75.74;99864.25;125670;1096;104416;-74
2020/12/17 01:06:08;;;;;;;62.30;33.97;;;;;;;0.62;75.53;99866.88;125646;1101;104481;-74
2020/12/17 01:08:35;;;;;;;64.50;32.20;;;;;;;0.61;75.61;99862.56;125607;1101;104481;-75
2020/12/17 01:11:04;;;;;;;65.70;34.20;;;;;;;0.61;75.55;99860.78;125595;1101;104445;-75
2020/12/17 01:13:32;;;;;;;140.17;72.17;;;;;;;0.60;75.78;99864.30;127212;1102;102734;-74
2020/12/17 01:16:02;;;;;;;166.23;87.87;;;;;;;0.55;75.44;99856.55;125561;1101;105027;-74
2020/12/17 01:18:29;;;;;;;159.40;88.33;;;;;;;0.53;75.59;99860.06;125564;1101;104506;-75
2020/12/17 01:20:56;;;;;;;165.37;90.63;;;;;;;0.48;75.49;99868.02;125585;1097;104430;-75
2020/12/17 01:23:23;;;;;;;187.77;98.13;;;;;;;0.46;75.65;99869.80;125617;1101;104577;-73
2020/12/17 01:25:50;;;;;;;180.53;97.53;;;;;;;0.39;75.18;99869.05;125489;1101;104644;-74
2020/12/17 01:28:17;;;;;;;185.43;95.27;;;;;;;0.37;75.41;99865.59;125644;1101;104422;-73
2020/12/17 01:30:44;;;;;;;177.57;96.82;;;;;;;0.35;75.70;99864.77;125726;1097;105093;-74
2020/12/17 01:33:11;;;;;;;163.03;87.57;;;;;;;0.32;75.61;99859.58;125762;1097;104483;-73
2020/12/17 01:35:38;;;;;;;88.85;47.30;;;;;;;0.25;75.35;99852.73;125610;1101;104659;-75
2020/12/17 01:38:05;;;;;;;80.80;43.53;;;;;;;0.11;75.37;99851.20;125708;1101;104528;-73
2020/12/17 01:40:32;;;;;;;76.95;39.90;;;;;;;-0.03;75.12;99848.83;125741;1101;104989;-74
2020/12/17 01:43:00;;;;;;;77.43;41.80;;;;;;;-0.15;75.01;99843.79;125831;1102;104971;-74
2020/12/17 01:45:27;;;;;;;78.55;42.88;;;;;;;-0.25;75.35;99843.08;125718;1101;104423;-73
2020/12/17 01:47:54;;;;;;;79.20;42.10;;;;;;;-0.35;75.15;99844.98;125777;1101;104624;-74
2020/12/17 01:50:24;;;;;;;74.13;40.97;;;;;;;-0.41;75.58;99847.69;125701;1097;104525;-73
2020/12/17 01:52:57;;;;;;;70.07;37.57;;;;;;;-0.49;75.18;99847.81;125668;1101;104590;-73
2020/12/17 01:55:28;;;;;;;65.33;34.63;;;;;;;-0.54;75.89;99839.17;125779;1101;104532;-74
2020/12/17 01:58:01;;;;;;;61.43;34.30;;;;;;;-0.57;75.58;99844.44;126665;1097;104382;-73
2020/12/17 02:00:36;;;;;;;61.57;33.87;;;;;;;-0.59;75.07;99843.59;125716;1101;104484;-73
2020/12/17 02:03:05;;;;;;;59.57;30.93;;;;;;;-0.63;75.72;99848.02;126044;1101;104478;-73
2020/12/17 02:05:34;;;;;;;61.07;32.00;;;;;;;-0.65;75.39;99843.69;125732;1101;104407;-73
2020/12/17 02:08:00;;;;;;;65.77;34.73;;;;;;;-0.64;75.53;99848.02;125704;1101;104436;-74
2020/12/17 02:10:29;;;;;;;64.15;35.90;;;;;;;-0.60;75.95;99849.71;125722;1101;104989;-74
2020/12/17 02:12:56;;;;;;;63.50;35.13;;;;;;;-0.54;75.91;99849.63;125690;1101;104578;-74
2020/12/17 02:15:25;;;;;;;86.17;45.43;;;;;;;-0.45;75.84;99848.62;125747;1097;104414;-72
2020/12/17 02:17:52;;;;;;;70.23;38.23;;;;;;;-0.39;76.24;99839.80;125714;1097;104525;-74
2020/12/17 02:20:21;;;;;;;68.13;35.97;;;;;;;-0.34;75.89;99845.83;125717;1101;104525;-72
2020/12/17 02:22:48;;;;;;;56.20;30.23;;;;;;;-0.29;76.04;99841.40;125789;1101;104529;-73
2020/12/17 02:25:15;;;;;;;52.23;27.80;;;;;;;-0.28;75.90;99842.28;125622;1097;104564;-73
2020/12/17 02:27:43;;;;;;;57.27;30.33;;;;;;;-0.30;75.55;99831.83;125667;1101;104482;-73
2020/12/17 02:30:12;;;;;;;54.30;28.17;;;;;;;-0.31;76.33;99833.59;125982;1101;104461;-73
2020/12/17 02:32:39;;;;;;;55.15;27.90;;;;;;;-0.31;75.85;99833.59;125671;1096;104512;-72
2020/12/17 02:35:10;;;;;;;56.57;29.90;;;;;;;-0.29;75.66;99830.09;125690;1101;104872;-73
2020/12/17 02:37:55;;;;;;;50.00;26.23;;;;;;;-0.26;75.98;99830.05;125701;1097;104580;-73
2020/12/17 02:40:22;;;;;;;50.70;24.70;;;;;;;-0.25;76.30;99831.77;125728;1101;104449;-73
2020/12/17 02:42:49;;;;;;;45.13;22.33;;;;;;;-0.24;76.31;99838.73;125782;1094;104423;-73
2020/12/17 02:45:17;;;;;;;52.03;28.20;;;;;;;-0.25;76.30;99834.39;125659;1097;104501;-73
2020/12/17 02:47:44;;;;;;;47.73;23.60;;;;;;;-0.25;75.92;99835.23;125719;1101;104446;-73
2020/12/17 02:50:13;;;;;;;53.37;27.77;;;;;;;-0.26;75.99;99833.51;125763;1101;104504;-74
2020/12/17 02:52:41;;;;;;;47.70;25.67;;;;;;;-0.23;76.00;99825.62;126262;1097;104602;-72
2020/12/17 02:55:09;;;;;;;43.37;23.33;;;;;;;-0.21;76.28;99823.00;125614;1101;104920;-73
2020/12/17 02:57:40;;;;;;;39.60;18.53;;;;;;;-0.20;76.52;99827.30;125798;1101;104548;-75
2020/12/17 03:00:12;;;;;;;46.33;23.77;;;;;;;-0.21;76.16;99826.45;125836;1101;104494;-75
2020/12/17 03:02:39;;;;;;;51.07;27.13;;;;;;;-0.20;76.12;99819.46;125823;1096;104652;-74
2020/12/17 03:05:06;;;;;;;47.60;25.17;;;;;;;-0.14;76.12;99821.98;125668;1096;104451;-74
2020/12/17 03:07:33;;;;;;;45.47;23.57;;;;;;;-0.10;76.13;99818.42;125761;1097;104506;-75
2020/12/17 03:10:01;;;;;;;45.20;23.47;;;;;;;-0.06;76.61;99822.72;125992;1101;104490;-74
2020/12/17 03:12:28;;;;;;;47.30;23.73;;;;;;;0.01;76.23;99820.00;126125;1101;104485;-73
2020/12/17 03:14:57;;;;;;;45.20;23.30;;;;;;;0.02;76.43;99821.73;125524;1097;104545;-73
2020/12/17 03:17:26;;;;;;;47.83;25.70;;;;;;;0.05;76.18;99817.30;125686;1097;104507;-72
2020/12/17 03:19:53;;;;;;;50.20;25.70;;;;;;;0.06;76.27;99805.94;125681;1097;104551;-74
2020/12/17 03:22:20;;;;;;;43.83;21.97;;;;;;;0.05;75.98;99811.22;125629;1097;104674;-74
2020/12/17 03:24:46;;;;;;;45.80;24.87;;;;;;;0.02;76.31;99813.88;125591;1097;104432;-74
2020/12/17 03:27:14;;;;;;;49.50;25.60;;;;;;;-0.02;76.44;99811.31;125635;1097;104919;-74
2020/12/17 03:29:41;;;;;;;48.30;24.30;;;;;;;0.00;76.19;99819.16;125617;1096;104542;-74
2020/12/17 03:32:08;;;;;;;48.23;26.93;;;;;;;0.04;75.99;99819.95;125866;1097;104438;-74
2020/12/17 03:34:35;;;;;;;49.63;24.77;;;;;;;0.06;76.88;99816.41;125658;1097;104400;-74
2020/12/17 03:37:03;;;;;;;46.77;25.40;;;;;;;0.07;76.72;99812.05;125564;1101;104510;-74
2020/12/17 03:39:31;;;;;;;53.00;26.60;;;;;;;0.10;76.52;99812.00;125623;1102;104423;-74
2020/12/17 03:41:58;;;;;;;47.60;24.43;;;;;;;0.10;76.58;99810.23;125760;1101;104417;-74
2020/12/17 03:44:25;;;;;;;42.23;20.63;;;;;;;0.11;76.51;99809.34;125509;1101;104605;-74
2020/12/17 03:46:52;;;;;;;42.23;22.17;;;;;;;0.06;75.97;99819.02;125711;1097;104599;-75
2020/12/17 03:49:19;;;;;;;47.67;24.23;;;;;;;0.05;76.31;99819.91;125640;1101;104920;-76
2020/12/17 03:51:49;;;;;;;41.50;21.03;;;;;;;0.06;76.21;99816.41;125791;1101;104423;-75
2020/12/17 03:54:17;;;;;;;48.93;25.90;;;;;;;0.06;76.89;99815.56;125731;1094;104423;-74
2020/12/17 03:56:44;;;;;;;40.97;21.07;;;;;;;0.06;76.20;99820.80;125649;1101;104462;-73
2020/12/17 03:59:11;;;;;;;42.60;22.10;;;;;;;0.02;76.09;99814.73;125706;1097;104445;-74
2020/12/17 04:01:38;;;;;;;43.60;21.65;;;;;;;-0.03;76.61;99819.20;125688;1097;104672;-74
2020/12/17 04:04:05;;;;;;;47.53;25.87;;;;;;;-0.06;76.31;99824.48;125684;1101;104481;-73
2020/12/17 04:06:33;;;;;;;50.17;25.30;;;;;;;-0.05;76.83;99823.59;125588;1097;104468;-73
2020/12/17 04:08:59;;;;;;;53.45;28.55;;;;;;;-0.01;76.68;99827.89;125757;1101;104464;-73
2020/12/17 04:11:26;;;;;;;67.30;37.17;;;;;;;0.04;76.32;99831.27;125900;1094;104416;-73
2020/12/17 04:13:53;;;;;;;72.30;38.80;;;;;;;0.06;76.34;99824.25;125680;1096;104464;-74
2020/12/17 04:16:20;;;;;;;72.73;38.47;;;;;;;0.08;76.69;99835.55;125510;1096;104439;-73
2020/12/17 04:18:47;;;;;;;66.82;36.75;;;;;;;0.09;76.83;99826.82;125597;1101;104548;-74
2020/12/17 04:21:17;;;;;;;59.80;31.87;;;;;;;0.12;76.87;99834.62;125646;1101;104458;-74
2020/12/17 04:23:44;;;;;;;48.95;25.40;;;;;;;0.08;76.85;99819.02;125654;1097;105208;-74
2020/12/17 04:26:16;;;;;;;48.97;25.47;;;;;;;-0.02;76.30;99824.40;125619;1097;104531;-72
2020/12/17 04:28:43;;;;;;;45.07;23.83;;;;;;;-0.11;76.03;99816.70;126256;1093;104500;-73
2020/12/17 04:31:10;;;;;;;48.10;25.45;;;;;;;-0.19;75.98;99829.91;125669;1101;104436;-72
2020/12/17 04:33:37;;;;;;;70.97;37.60;;;;;;;-0.17;76.26;99832.48;125650;1097;104502;-73
2020/12/17 04:36:04;;;;;;;80.67;40.47;;;;;;;-0.14;76.12;99831.59;125599;1101;105072;-72
2020/12/17 04:38:31;;;;;;;74.97;39.30;;;;;;;-0.10;76.59;99828.89;125619;1101;104429;-73
2020/12/17 04:41:04;;;;;;;74.70;39.77;;;;;;;-0.06;76.51;99821.88;125774;1101;104560;-73
2020/12/17 04:43:33;;;;;;;76.67;39.70;;;;;;;-0.03;76.72;99829.67;125692;1097;104539;-72
2020/12/17 04:46:04;;;;;;;76.90;41.70;;;;;;;-0.02;76.79;99824.40;125679;1097;104485;-73
2020/12/17 04:48:33;;;;;;;60.50;31.20;;;;;;;-0.01;76.59;99828.73;125750;1097;104388;-73
2020/12/17 04:51:00;;;;;;;63.00;31.20;;;;;;;-0.02;76.80;99829.62;125775;1097;104604;-72
2020/12/17 04:53:30;;;;;;;73.17;38.43;;;;;;;-0.02;76.91;99819.16;125838;1097;105236;-71
2020/12/17 04:55:59;;;;;;;78.73;40.20;;;;;;;-0.02;77.00;99824.40;125695;1094;104413;-71
2020/12/17 04:58:30;;;;;;;81.17;44.07;;;;;;;-0.01;76.26;99831.36;126155;1096;104407;-71
2020/12/17 05:00:58;;;;;;;79.43;44.27;;;;;;;-0.02;76.35;99836.62;125658;1097;104894;-71
2020/12/17 05:03:24;;;;;;;84.00;43.27;;;;;;;-0.05;76.15;99828.83;125622;1096;104432;-72
2020/12/17 05:06:06;;;;;;;83.47;44.03;;;;;;;-0.05;76.47;99834.06;125562;1101;104410;-72
2020/12/17 05:08:33;;;;;;;78.70;40.67;;;;;;;-0.04;76.73;99844.48;125626;1093;104468;-72
2020/12/17 05:11:00;;;;;;;101.33;52.65;;;;;;;-0.04;76.87;99834.02;125599;1097;104544;-71
2020/12/17 05:13:27;;;;;;;102.57;55.30;;;;;;;-0.08;76.20;99839.34;125810;1096;104551;-71
2020/12/17 05:15:56;;;;;;;118.00;61.85;;;;;;;-0.14;76.50;99844.67;125557;1097;104616;-71
2020/12/17 05:18:23;;;;;;;115.05;61.05;;;;;;;-0.17;76.12;99851.67;125771;1097;104538;-74
2020/12/17 05:20:51;;;;;;;117.45;58.83;;;;;;;-0.19;76.56;99848.22;125646;1097;104487;-70
2020/12/17 05:23:23;;;;;;;123.97;62.57;;;;;;;-0.17;76.16;99842.95;125909;1097;104475;-78
2020/12/17 05:25:54;;;;;;;126.37;65.03;;;;;;;-0.18;76.14;99852.56;125596;1096;104595;-73
2020/12/17 05:28:23;;;;;;;122.73;66.57;;;;;;;-0.17;76.15;99843.83;126295;1097;104414;-73
2020/12/17 05:30:50;;;;;;;126.93;64.30;;;;;;;-0.14;76.53;99852.52;125724;1097;104557;-73
2020/12/17 05:33:17;;;;;;;135.10;73.07;;;;;;;-0.13;76.97;99849.86;125527;1097;104457;-73
2020/12/17 05:35:46;;;;;;;127.97;70.30;;;;;;;-0.11;76.26;99852.47;125483;1096;104484;-74
2020/12/17 05:38:13;;;;;;;131.30;71.40;;;;;;;-0.11;76.48;99853.31;125636;1097;103747;-73
2020/12/17 05:40:44;;;;;;;124.40;66.97;;;;;;;-0.13;76.98;99857.70;125651;1101;104772;-74
2020/12/17 05:43:11;;;;;;;120.30;65.40;;;;;;;-0.12;77.11;99854.20;126154;1094;104600;-73
2020/12/17 05:45:38;;;;;;;108.87;61.10;;;;;;;-0.11;76.85;99860.31;125758;1101;104420;-72
2020/12/17 05:48:19;;;;;;;116.90;65.80;;;;;;;-0.14;76.63;99850.75;125780;1101;104474;-73
2020/12/17 05:51:01;;;;;;;102.23;57.80;;;;;;;-0.16;76.37;99860.37;125879;1101;104426;-72
2020/12/17 05:53:30;;;;;;;107.80;60.03;;;;;;;-0.18;76.37;99862.14;125956;1101;104432;-73
2020/12/17 05:56:08;;;;;;;105.83;59.37;;;;;;;-0.17;76.71;99864.75;126934;1101;104448;-72
2020/12/17 05:58:41;;;;;;;100.73;56.43;;;;;;;-0.16;76.94;99862.98;126241;1101;104424;-74
2020/12/17 06:01:18;;;;;;;107.90;59.57;;;;;;;-0.18;76.82;99863.02;125847;1101;104567;-73
2020/12/17 06:03:47;;;;;;;113.77;61.03;;;;;;;-0.15;76.31;99869.94;125790;1097;104628;-74
2020/12/17 06:06:17;;;;;;;118.00;58.40;;;;;;;-0.16;76.75;99882.16;125747;1101;105291;-73
2020/12/17 06:08:51;;;;;;;110.73;59.47;;;;;;;-0.12;76.78;99884.73;125789;1101;104478;-73
2020/12/17 06:11:23;;;;;;;113.53;62.17;;;;;;;-0.11;76.78;99889.92;125735;1102;104554;-73
2020/12/17 06:13:57;;;;;;;105.47;57.53;;;;;;;-0.09;76.80;99892.53;127322;1101;102433;-74
2020/12/17 06:16:28;;;;;;;;;;;;;;;-0.09;76.70;99892.53;125882;1102;104597;-74
2020/12/17 06:18:58;;;;;;;110.73;59.17;;;;;;;-0.08;76.64;99892.50;125797;1097;104421;-73
2020/12/17 06:21:28;;;;;;;102.50;55.97;;;;;;;-0.09;76.91;99890.77;125919;1102;104423;-73
2020/12/17 06:23:59;;;;;;;101.37;56.00;;;;;;;-0.10;76.48;99891.66;125864;1101;104475;-73
2020/12/17 06:26:37;;;;;;;103.27;59.10;;;;;;;-0.11;76.39;99895.16;125795;1096;104442;-73
2020/12/17 06:29:19;;;;;;;110.93;61.40;;;;;;;-0.12;76.58;99898.66;125779;1101;104426;-73
2020/12/17 06:31:57;;;;;;;124.60;70.13;;;;;;;-0.13;76.00;99901.31;125816;1101;104484;-74
2020/12/17 06:34:40;;;;;;;147.20;80.43;;;;;;;-0.17;76.35;99897.86;125792;1101;104439;-74
2020/12/17 06:37:15;;;;;;;167.10;93.75;;;;;;;-0.17;76.65;99900.48;125891;1101;104487;-74
2020/12/17 06:39:50;;;;;;;180.13;98.73;;;;;;;-0.18;76.35;99904.86;125885;1097;104417;-73
2020/12/17 06:42:36;;;;;;;233.47;123.27;;;;;;;-0.19;76.82;99905.75;125937;1101;104493;-73
2020/12/17 06:45:35;;;;;;;260.03;134.30;;;;;;;-0.19;76.89;99918.82;125743;1097;104487;-72
2020/12/17 06:48:40;;;;;;;245.33;128.57;;;;;;;-0.21;76.63;99915.36;125992;1096;104446;-73
2020/12/17 06:51:35;;;;;;;267.83;133.27;;;;;;;-0.21;76.53;99922.36;125475;1100;104529;-73
2020/12/17 06:54:31;;;;;;;319.70;154.57;;;;;;;-0.22;76.45;99915.41;125857;1096;104919;-73
2020/12/17 06:57:13;;;;;;;339.80;170.63;;;;;;;-0.20;76.76;99921.44;125856;1097;104583;-73
2020/12/17 06:59:44;;;;;;;241.43;123.33;;;;;;;-0.19;76.51;99921.44;125725;1097;104491;-73
2020/12/17 07:02:17;;;;;;;246.95;122.95;;;;;;;-0.18;76.61;99917.05;125564;1101;104554;-73
2020/12/17 07:04:49;;;;;;;250.90;127.53;;;;;;;-0.16;76.40;99925.74;126005;1097;104480;-74
2020/12/17 07:07:23;;;;;;;220.23;118.33;;;;;;;-0.12;76.98;99927.42;125890;1102;104442;-73
2020/12/17 07:09:52;;;;;;;200.40;107.80;;;;;;;-0.09;76.92;99923.92;125704;1101;104487;-74
2020/12/17 07:12:42;;;;;;;235.13;118.20;;;;;;;-0.09;76.47;99916.92;125646;1096;104455;-73
2020/12/17 07:15:35;;;;;;;225.20;112.97;;;;;;;-0.04;76.76;99916.87;125635;1096;104656;-74
2020/12/17 07:18:24;;;;;;;140.33;73.80;;;;;;;-0.07;76.26;99920.38;125727;1097;104416;-74
2020/12/17 07:21:12;;;;;;;131.43;71.47;;;;;;;-0.11;76.92;99915.23;125690;1097;104464;-73
2020/12/17 07:23:41;;;;;;;141.00;77.17;;;;;;;-0.15;77.01;99924.86;125648;1097;105137;-72
2020/12/17 07:26:08;;;;;;;135.57;73.83;;;;;;;-0.17;76.12;99921.40;126550;1097;104504;-72
2020/12/17 07:28:35;;;;;;;122.37;65.70;;;;;;;-0.23;76.57;99918.91;125782;1096;104528;-71
2020/12/17 07:31:02;;;;;;;105.63;54.83;;;;;;;-0.27;76.64;99920.68;125566;1095;105106;-71
2020/12/17 07:33:35;;;;;;;110.77;53.70;;;;;;;-0.30;77.01;99923.34;125494;1096;103246;-71
2020/12/17 07:36:08;;;;;;;99.35;53.78;;;;;;;-0.31;76.16;99929.45;125537;1096;104497;-70
2020/12/17 07:38:37;;;;;;;103.80;55.00;;;;;;;-0.33;76.36;99929.48;127243;1093;104525;-71
2020/12/17 07:41:26;;;;;;;102.63;58.10;;;;;;;-0.34;76.39;99921.64;125765;1097;104452;-71
2020/12/17 07:43:55;;;;;;;90.22;52.00;;;;;;;-0.33;76.77;99918.15;125786;1096;104448;-75
2020/12/17 07:46:37;;;;;;;108.07;61.13;;;;;;;-0.30;77.31;99918.11;125925;1097;104477;-71
2020/12/17 07:49:28;;;;;;;88.73;50.57;;;;;;;-0.26;76.91;99919.80;125902;1101;104561;-71
2020/12/17 07:51:55;;;;;;;98.57;54.87;;;;;;;-0.24;76.79;99917.17;125774;1101;104522;-72
2020/12/17 07:54:23;;;;;;;98.70;53.73;;;;;;;-0.21;76.52;99912.75;125833;1101;104419;-71
2020/12/17 07:56:59;;;;;;;96.75;54.10;;;;;;;-0.18;76.57;99915.32;125805;1101;104507;-74
2020/12/17 07:59:28;;;;;;;94.70;50.13;;;;;;;-0.13;76.49;99917.85;125795;1101;104566;-71
2020/12/17 08:02:04;;;;;;;88.53;50.90;;;;;;;-0.09;76.92;99921.30;125891;1101;104621;-71
2020/12/17 08:04:32;;;;;;;87.10;47.10;;;;;;;-0.07;77.24;99916.92;125860;1101;104452;-72
2020/12/17 08:07:10;;;;;;;79.90;45.30;;;;;;;-0.05;76.57;99915.14;125747;1097;104423;-72
2020/12/17 08:09:37;;;;;;;73.47;39.67;;;;;;;-0.05;76.63;99912.53;125874;1097;104534;-72
2020/12/17 08:12:11;;;;;;;81.47;46.47;;;;;;;-0.06;76.47;99906.41;125733;1097;104548;-72
2020/12/17 08:14:38;;;;;;;83.20;46.08;;;;;;;-0.06;76.63;99913.41;125777;1095;104906;-71
2020/12/17 08:17:08;;;;;;;83.60;47.60;;;;;;;-0.05;76.89;99912.53;125827;1096;105417;-74
2020/12/17 08:19:35;;;;;;;82.87;44.83;;;;;;;-0.04;76.72;99915.10;125756;1094;104485;-73
2020/12/17 08:22:03;;;;;;;93.43;48.60;;;;;;;-0.03;77.04;99916.83;125716;1097;104424;-72
2020/12/17 08:24:34;;;;;;;81.87;44.50;;;;;;;0.05;77.01;99918.47;125937;1097;104451;-75
2020/12/17 08:27:01;;;;;;;86.40;48.40;;;;;;;0.11;77.25;99916.61;125749;1097;104490;-82
2020/12/17 08:29:30;;;;;;;81.57;43.40;;;;;;;0.17;76.95;99918.28;125839;1097;104903;-80
2020/12/17 08:32:08;;;;;;;89.10;47.40;;;;;;;0.22;77.15;99918.20;125819;1097;104462;-77
2020/12/17 08:34:35;;;;;;;74.33;40.57;;;;;;;0.26;76.92;99920.72;125855;1097;104517;-79
2020/12/17 08:37:02;;;;;;;83.40;45.17;;;;;;;0.28;77.11;99913.70;125819;1097;104503;-70
2020/12/17 08:39:29;;;;;;;75.40;39.77;;;;;;;0.32;77.11;99905.81;125809;1097;104535;-73
2020/12/17 08:41:59;;;;;;;71.37;40.08;;;;;;;0.34;77.15;99915.38;125417;1097;104531;-73
2020/12/17 08:44:30;;;;;;;71.40;40.85;;;;;;;0.35;77.25;99911.88;125729;1097;104417;-75
2020/12/17 08:47:05;;;;;;;58.40;33.57;;;;;;;0.39;77.28;99905.70;125815;1097;104465;-74
2020/12/17 08:49:35;;;;;;;69.63;38.13;;;;;;;0.41;77.28;99910.89;125705;1096;104526;-73
2020/12/17 08:52:02;;;;;;;70.60;40.65;;;;;;;0.44;77.29;99913.45;125839;1096;104567;-77
2020/12/17 08:54:36;;;;;;;76.60;43.20;;;;;;;0.50;77.13;99907.23;125830;1097;104531;-73
2020/12/17 08:57:07;;;;;;;;;;;;;;;0.54;77.34;99909.80;125770;1097;104445;-73
2020/12/17 08:59:36;;;;;;;84.73;46.73;;;;;;;0.63;77.69;99916.61;125784;1102;104555;-75
2020/12/17 09:02:04;;;;;;;81.80;48.83;;;;;;;0.74;77.29;99912.05;125778;1097;104411;-74
2020/12/17 09:04:32;;;;;;;80.73;45.50;;;;;;;0.85;77.55;99909.21;125754;1097;104584;-75
2020/12/17 09:07:03;;;;;;;81.37;48.07;;;;;;;0.95;77.35;99912.52;125767;1095;104893;-72
2020/12/17 09:09:33;;;;;;;87.43;48.07;;;;;;;1.03;77.63;99910.61;125885;1101;104504;-73
2020/12/17 09:12:05;;;;;;;79.60;44.63;;;;;;;1.10;77.45;99894.77;125778;1101;104977;-74
2020/12/17 09:14:35;;;;;;;81.10;46.97;;;;;;;1.16;77.60;99905.98;125855;1097;104559;-73
2020/12/17 09:17:11;;;;;;;81.53;45.33;;;;;;;1.19;77.11;99907.69;125897;1101;104500;-72
2020/12/17 09:19:48;;;;;;;88.90;48.67;;;;;;;1.25;77.70;99909.30;125839;1101;104427;-75
2020/12/17 09:22:19;;;;;;;87.23;49.43;;;;;;;1.23;77.40;99906.70;125934;1101;104443;-74
2020/12/17 09:24:54;;;;;;;80.73;49.03;;;;;;;1.26;77.23;99904.02;125880;1101;104577;-73
2020/12/17 09:27:28;;;;;;;77.87;46.60;;;;;;;1.31;77.61;99902.16;125900;1101;104630;-75
2020/12/17 09:30:12;;;;;;;77.67;44.90;;;;;;;1.36;77.60;99903.83;125910;1101;104419;-76
2020/12/17 09:33:05;;;;;;;86.67;48.17;;;;;;;1.41;77.88;99899.35;125823;1093;104424;-75
2020/12/17 09:35:36;;;;;;;78.00;48.10;;;;;;;1.45;77.31;99901.86;126014;1101;104628;-73
2020/12/17 09:38:12;;;;;;;77.33;43.90;;;;;;;1.49;77.65;99900.06;125815;1093;104554;-77
2020/12/17 09:40:44;;;;;;;76.23;41.37;;;;;;;1.55;77.70;99894.68;125770;1096;104503;-74
2020/12/17 09:43:15;;;;;;;67.70;37.83;;;;;;;1.59;77.70;99898.96;125887;1093;104455;-74
2020/12/17 09:45:48;;;;;;;60.00;33.53;;;;;;;1.62;78.00;99895.39;125865;1093;104467;-75
2020/12/17 09:48:24;;;;;;;58.30;33.83;;;;;;;1.58;77.83;99894.61;125777;1093;104558;-72
2020/12/17 09:51:00;;;;;;;64.57;35.67;;;;;;;1.64;77.66;99898.84;125819;1093;104442;-73
2020/12/17 09:53:45;;;;;;;58.23;34.33;;;;;;;1.70;78.26;99896.09;125854;1093;104483;-75
2020/12/17 09:56:18;;;;;;;63.13;34.67;;;;;;;1.75;78.13;99888.09;125771;1093;104574;-75
2020/12/17 09:58:46;;;;;;;65.57;36.30;;;;;;;1.78;77.91;99886.28;125730;1093;104500;-75
2020/12/17 10:01:15;;;;;;;61.93;34.77;;;;;;;1.82;77.13;99887.06;125818;1096;104430;-75
2020/12/17 10:03:42;;;;;;;59.20;34.10;;;;;;;1.85;77.81;99881.75;125847;1093;104414;-75
2020/12/17 10:06:10;;;;;;;58.13;32.20;;;;;;;1.89;77.56;99882.52;125832;1093;104439;-81
2020/12/17 10:08:36;;;;;;;56.90;31.40;;;;;;;1.93;77.93;99876.31;125759;1093;104416;-76
2020/12/17 10:11:09;;;;;;;58.87;31.87;;;;;;;1.98;78.04;99868.34;125822;1093;104417;-77
2020/12/17 10:13:37;;;;;;;56.13;31.97;;;;;;;2.02;77.99;99869.99;125828;1093;104416;-76
2020/12/17 10:16:04;;;;;;;60.70;32.00;;;;;;;2.04;77.65;99869.05;125815;1093;104475;-78
2020/12/17 10:18:31;;;;;;;57.17;33.67;;;;;;;2.06;77.81;99868.98;125741;1093;104525;-77
2020/12/17 10:20:58;;;;;;;131.73;79.73;;;;;;;2.10;77.81;99869.80;125768;1096;104579;-75
2020/12/17 10:23:25;;;;;;;123.27;71.10;;;;;;;2.14;77.82;99871.45;125867;1096;104443;-75
2020/12/17 10:25:52;;;;;;;116.42;64.77;;;;;;;2.18;77.63;99873.09;125719;1096;104571;-74
2020/12/17 10:28:19;;;;;;;148.77;85.10;;;;;;;2.21;77.66;99873.86;125642;1093;104478;-76
2020/12/17 10:30:46;;;;;;;152.30;91.50;;;;;;;2.26;77.66;99876.36;125705;1096;104558;-74
2020/12/17 10:33:13;;;;;;;185.43;107.43;;;;;;;2.28;77.68;99871.09;125922;1093;104499;-74
2020/12/17 10:35:40;;;;;;;193.68;114.55;;;;;;;2.31;77.67;99863.98;125807;1093;104416;-75
2020/12/17 10:38:07;;;;;;;207.10;120.00;;;;;;;2.34;77.93;99863.06;125895;1101;104433;-74
2020/12/17 10:40:35;;;;;;;211.43;121.75;;;;;;;2.37;77.97;99862.98;125836;1101;104419;-76
2020/12/17 10:43:02;;;;;;;204.43;127.20;;;;;;;2.38;77.70;99862.92;125858;1101;104646;-74
2020/12/17 10:45:29;;;;;;;215.50;132.73;;;;;;;2.42;78.15;99852.34;125801;1101;104465;-75
2020/12/17 10:47:56;;;;;;;221.87;132.67;;;;;;;2.45;77.68;99849.64;125884;1101;104443;-76
2020/12/17 10:50:24;;;;;;;221.00;135.00;;;;;;;2.48;78.05;99844.30;125882;1101;104423;-73
2020/12/17 10:52:51;;;;;;;228.63;132.33;;;;;;;2.49;77.61;99852.12;125837;1101;104481;-73
2020/12/17 10:55:18;;;;;;;215.90;130.97;;;;;;;2.51;77.91;99845.07;125812;1101;104484;-75
2020/12/17 10:57:45;;;;;;;206.10;124.87;;;;;;;2.53;77.67;99838.02;125802;1101;104647;-74
2020/12/17 11:00:12;;;;;;;203.17;122.43;;;;;;;2.57;77.76;99833.55;125842;1101;104551;-75
2020/12/17 11:02:44;;;;;;;191.97;115.27;;;;;;;2.59;77.30;99841.38;125898;1101;104426;-75
2020/12/17 11:05:11;;;;;;;171.18;107.20;;;;;;;2.61;78.26;99836.95;125861;1101;104576;-78
2020/12/17 11:07:38;;;;;;;177.43;104.10;;;;;;;2.63;77.37;99840.39;125821;1101;104593;-75
2020/12/17 11:10:05;;;;;;;171.80;102.13;;;;;;;2.65;78.02;99834.18;125854;1101;104455;-74
2020/12/17 11:12:33;;;;;;;169.43;105.20;;;;;;;2.68;77.54;99839.36;125832;1102;104421;-73
2020/12/17 11:15:00;;;;;;;157.80;97.50;;;;;;;2.71;77.78;99838.42;125883;1094;104478;-74
2020/12/17 11:17:28;;;;;;;149.03;93.97;;;;;;;2.74;77.76;99837.46;125884;1101;104493;-72